Time;durP1;ratioP1;P1;durP2;ratioP2;P2;SDS_P1;SDS_P2;PMS_P1;PMS_P2;Temp;Humidity;BMP_temperature;BMP_pressure;BME280_temperature;BME280_humidity;BME280_pressure;Samples;Min_cycle;Max_cycle;Signal;HPM_P1;HPM_P2
2023/04/19 00:00:42;;;;;;;8.77;4.35;;;20.10;79.40;;;;;;4951326;29;20039;-73
2023/04/19 00:03:10;;;;;;;11.85;4.72;;;20.10;79.30;;;;;;4952227;29;20038;-75
2023/04/19 00:05:37;;;;;;;9.95;4.70;;;20.10;79.40;;;;;;4953730;29;20020;-75
2023/04/19 00:08:03;;;;;;;8.20;4.60;;;20.10;79.40;;;;;;4954056;28;20020;-75
2023/04/19 00:10:29;;;;;;;10.43;4.95;;;20.10;79.30;;;;;;4951205;29;20026;-74
2023/04/19 00:12:54;;;;;;;9.50;4.38;;;20.10;79.30;;;;;;4954901;29;20102;-75
2023/04/19 00:15:20;;;;;;;10.35;4.45;;;20.10;79.30;;;;;;4953530;29;20027;-74
2023/04/19 00:17:45;;;;;;;8.55;4.55;;;20.10;79.30;;;;;;4954947;28;20026;-73
2023/04/19 00:20:12;;;;;;;7.85;5.32;;;20.10;79.30;;;;;;4953254;29;20027;-74
2023/04/19 00:22:38;;;;;;;6.75;4.35;;;20.10;79.30;;;;;;4952759;29;20413;-75
2023/04/19 00:25:04;;;;;;;10.48;4.60;;;20.10;79.30;;;;;;4954556;28;20023;-75
2023/04/19 00:27:30;;;;;;;7.85;3.67;;;20.10;79.30;;;;;;4953267;28;20384;-74
2023/04/19 00:29:56;;;;;;;8.15;4.47;;;20.10;79.30;;;;;;4948736;29;20027;-74
2023/04/19 00:32:22;;;;;;;6.60;4.38;;;20.00;79.30;;;;;;4954594;28;20038;-73
2023/04/19 00:34:48;;;;;;;6.40;3.90;;;20.10;79.30;;;;;;4954269;29;20031;-76
2023/04/19 00:37:13;;;;;;;6.75;4.40;;;20.10;79.30;;;;;;4954232;28;20031;-75
2023/04/19 00:39:39;;;;;;;11.13;3.83;;;20.00;79.20;;;;;;4953147;29;20028;-75
2023/04/19 00:42:04;;;;;;;9.07;4.50;;;20.00;79.20;;;;;;4952035;29;20024;-75
2023/04/19 00:44:30;;;;;;;7.88;4.43;;;20.10;79.30;;;;;;4949407;29;20031;-75
2023/04/19 00:46:56;;;;;;;6.88;4.22;;;20.00;79.20;;;;;;4950564;29;20034;-74
2023/04/19 00:49:23;;;;;;;9.63;4.70;;;20.00;79.20;;;;;;4952145;28;20023;-76
2023/04/19 00:51:50;;;;;;;8.45;3.72;;;20.00;79.20;;;;;;4953361;28;20015;-73
2023/04/19 00:54:15;;;;;;;8.80;4.10;;;20.00;79.30;;;;;;4953018;28;20019;-75
2023/04/19 00:56:42;;;;;;;10.25;4.22;;;20.00;79.30;;;;;;4953558;28;20027;-75
2023/04/19 00:59:08;;;;;;;10.18;4.50;;;20.00;79.30;;;;;;4955000;28;20024;-75
2023/04/19 01:01:34;;;;;;;9.27;4.22;;;20.00;79.30;;;;;;4953580;29;20110;-72
2023/04/19 01:04:01;;;;;;;8.93;4.57;;;20.00;79.20;;;;;;4953265;29;20031;-76
2023/04/19 01:06:28;;;;;;;8.05;4.40;;;20.00;79.20;;;;;;4953270;28;20049;-73
2023/04/19 01:08:54;;;;;;;9.30;3.78;;;20.00;79.20;;;;;;4954652;28;20019;-74
2023/04/19 01:11:21;;;;;;;9.27;4.10;;;20.00;79.20;;;;;;4952289;29;20023;-75
2023/04/19 01:13:47;;;;;;;10.65;3.95;;;20.00;79.20;;;;;;4951769;29;20015;-75
2023/04/19 01:16:12;;;;;;;8.95;3.88;;;20.00;79.10;;;;;;4951233;29;20027;-73
2023/04/19 01:18:39;;;;;;;6.47;4.00;;;20.00;79.20;;;;;;4954257;28;20030;-75
2023/04/19 01:21:06;;;;;;;6.28;3.88;;;19.90;79.00;;;;;;4951360;29;20106;-75
2023/04/19 01:23:31;;;;;;;5.38;3.53;;;20.00;79.20;;;;;;4952666;29;20086;-74
2023/04/19 01:25:57;;;;;;;9.48;4.35;;;19.90;79.10;;;;;;4952947;29;20027;-74
2023/04/19 01:28:22;;;;;;;8.10;3.90;;;19.90;79.10;;;;;;4954183;28;20031;-76
2023/04/19 01:30:52;;;;;;;9.25;4.20;;;20.00;79.20;;;;;;4953978;29;20019;-74
2023/04/19 01:33:18;;;;;;;6.72;3.95;;;20.00;79.20;;;;;;4954228;28;20082;-75
2023/04/19 01:35:44;;;;;;;8.40;4.18;;;20.00;79.20;;;;;;4953488;28;20121;-73
2023/04/19 01:38:09;;;;;;;7.32;4.15;;;20.00;79.20;;;;;;4953794;28;20094;-74
2023/04/19 01:40:35;;;;;;;6.68;3.50;;;19.90;79.20;;;;;;4954231;29;20469;-76
2023/04/19 01:43:00;;;;;;;8.50;4.50;;;19.90;79.20;;;;;;4950480;28;20032;-74
2023/04/19 01:45:26;;;;;;;7.78;4.05;;;19.90;79.30;;;;;;4942775;29;20523;-75
2023/04/19 01:47:51;;;;;;;6.00;3.88;;;19.90;79.20;;;;;;4949790;28;20122;-75
2023/04/19 01:50:17;;;;;;;6.57;3.92;;;19.90;79.20;;;;;;4947862;29;20027;-74
2023/04/19 01:52:43;;;;;;;7.20;3.95;;;19.90;79.20;;;;;;4942787;29;20027;-74
2023/04/19 01:55:08;;;;;;;7.40;3.35;;;19.90;79.20;;;;;;4938937;29;20027;-75
2023/04/19 01:57:34;;;;;;;6.20;3.75;;;19.90;79.10;;;;;;4946767;29;20094;-76
2023/04/19 02:00:01;;;;;;;7.18;3.83;;;19.90;79.20;;;;;;4938869;29;20509;-74
2023/04/19 02:02:26;;;;;;;4.57;3.10;;;19.90;79.10;;;;;;4948351;29;20077;-77
2023/04/19 02:04:52;;;;;;;7.05;3.60;;;19.90;79.10;;;;;;4950928;29;20035;-75
2023/04/19 02:07:17;;;;;;;7.53;3.47;;;19.90;79.00;;;;;;4951922;28;20020;-75
2023/04/19 02:09:43;;;;;;;7.25;3.63;;;19.90;79.00;;;;;;4952715;29;20432;-74
2023/04/19 02:12:08;;;;;;;7.75;3.22;;;19.90;79.10;;;;;;4951225;29;20027;-75
2023/04/19 02:14:34;;;;;;;10.75;4.25;;;19.90;79.20;;;;;;4951885;29;20506;-75
2023/04/19 02:17:00;;;;;;;11.10;3.53;;;19.90;79.10;;;;;;4951407;29;20023;-74
2023/04/19 02:19:25;;;;;;;6.95;3.72;;;19.90;79.10;;;;;;4952969;28;20023;-74
2023/04/19 02:21:52;;;;;;;7.05;4.05;;;19.90;79.10;;;;;;4951707;29;20106;-75
2023/04/19 02:24:18;;;;;;;5.53;3.47;;;19.90;79.10;;;;;;4952885;28;20015;-74
2023/04/19 02:26:43;;;;;;;5.50;3.60;;;19.90;79.10;;;;;;4948475;29;20548;-75
2023/04/19 02:29:09;;;;;;;7.25;3.33;;;19.90;79.00;;;;;;4949716;28;20499;-75
2023/04/19 02:31:35;;;;;;;5.20;3.47;;;19.80;79.10;;;;;;4951687;29;20019;-75
2023/04/19 02:34:01;;;;;;;5.40;3.65;;;19.80;79.00;;;;;;4952918;29;20481;-75
2023/04/19 02:36:26;;;;;;;4.63;3.25;;;19.80;79.00;;;;;;4952123;29;20037;-74
2023/04/19 02:38:52;;;;;;;8.23;3.50;;;19.90;79.00;;;;;;4950114;28;20031;-75
2023/04/19 02:41:17;;;;;;;6.57;3.22;;;19.80;78.90;;;;;;4952873;29;20628;-75
2023/04/19 02:43:43;;;;;;;4.70;3.25;;;19.80;79.00;;;;;;4950284;29;20415;-75
2023/04/19 02:46:09;;;;;;;5.80;3.53;;;19.80;79.00;;;;;;4951233;29;20536;-76
2023/04/19 02:48:34;;;;;;;6.60;3.70;;;19.80;79.10;;;;;;4952787;28;20499;-76
2023/04/19 02:51:00;;;;;;;8.82;3.45;;;19.80;79.00;;;;;;4952794;29;20027;-74
2023/04/19 02:53:26;;;;;;;5.65;3.20;;;19.80;79.00;;;;;;4948173;29;20067;-75
2023/04/19 02:55:51;;;;;;;5.78;3.05;;;19.80;79.00;;;;;;4945131;29;20055;-75
2023/04/19 02:58:17;;;;;;;4.90;3.20;;;19.80;79.00;;;;;;4948796;28;20054;-75
2023/04/19 03:00:43;;;;;;;6.65;3.40;;;19.80;79.00;;;;;;4952178;28;20084;-76
2023/04/19 03:03:08;;;;;;;5.53;3.33;;;19.80;78.90;;;;;;4942540;29;20031;-74
2023/04/19 03:05:34;;;;;;;5.18;3.75;;;19.80;78.90;;;;;;4952738;28;20437;-75
2023/04/19 03:07:59;;;;;;;7.60;3.38;;;19.80;78.90;;;;;;4951662;28;20023;-74
2023/04/19 03:10:25;;;;;;;5.72;3.50;;;19.80;78.90;;;;;;4949821;29;20015;-75
2023/04/19 03:12:50;;;;;;;4.72;3.42;;;19.80;79.00;;;;;;4952616;29;20034;-74
2023/04/19 03:15:19;;;;;;;5.72;3.45;;;19.80;78.90;;;;;;4951638;29;20046;-76
2023/04/19 03:17:45;;;;;;;5.78;3.35;;;19.80;78.90;;;;;;4951773;28;20046;-74
2023/04/19 03:20:10;;;;;;;8.82;3.17;;;19.80;78.90;;;;;;4953172;28;20050;-75
2023/04/19 03:22:37;;;;;;;4.90;3.38;;;19.80;78.90;;;;;;4955436;29;20034;-75
2023/04/19 03:25:04;;;;;;;4.65;3.13;;;19.80;78.80;;;;;;4952943;29;20028;-75
2023/04/19 03:27:29;;;;;;;5.43;3.35;;;19.80;78.90;;;;;;4955898;28;20492;-75
2023/04/19 03:29:55;;;;;;;7.05;3.35;;;19.70;78.80;;;;;;4956373;29;20039;-75
2023/04/19 03:32:21;;;;;;;5.88;3.10;;;19.70;78.80;;;;;;4956376;29;20524;-77
2023/04/19 03:34:47;;;;;;;4.55;3.08;;;19.70;78.80;;;;;;4954742;29;20106;-74
2023/04/19 03:37:12;;;;;;;6.50;3.10;;;19.70;78.80;;;;;;4955758;28;20037;-74
2023/04/19 03:39:38;;;;;;;4.28;3.35;;;19.80;78.90;;;;;;4956019;29;20038;-75
2023/04/19 03:42:03;;;;;;;5.68;3.00;;;19.70;78.80;;;;;;4956074;29;20033;-76
2023/04/19 03:44:32;;;;;;;5.47;3.17;;;19.80;78.90;;;;;;4956148;29;20050;-74
2023/04/19 03:46:58;;;;;;;5.63;3.55;;;19.80;78.90;;;;;;4951613;28;20402;-76
2023/04/19 03:49:24;;;;;;;4.20;2.75;;;19.80;78.90;;;;;;4951093;28;20050;-76
2023/04/19 03:51:49;;;;;;;9.07;3.03;;;19.80;78.90;;;;;;4949749;29;20039;-76
2023/04/19 03:54:15;;;;;;;4.00;2.80;;;19.90;78.80;;;;;;4949880;29;20032;-74
2023/04/19 03:56:41;;;;;;;5.10;2.85;;;19.90;78.70;;;;;;4947684;29;20028;-76
2023/04/19 03:59:06;;;;;;;4.88;2.78;;;19.90;78.70;;;;;;4953025;28;20048;-75
2023/04/19 04:01:32;;;;;;;5.28;3.25;;;19.90;78.70;;;;;;4955796;29;20142;-74
2023/04/19 04:03:57;;;;;;;4.28;2.95;;;19.90;78.70;;;;;;4954318;29;20043;-74
2023/04/19 04:06:23;;;;;;;3.88;2.97;;;19.90;78.70;;;;;;4953857;29;20031;-75
2023/04/19 04:08:49;;;;;;;5.93;3.00;;;20.00;78.70;;;;;;4955813;28;20107;-75
2023/04/19 04:11:14;;;;;;;5.97;2.90;;;19.90;78.70;;;;;;4955313;29;20023;-75
2023/04/19 04:13:40;;;;;;;4.03;2.90;;;20.00;78.70;;;;;;4954316;29;20023;-73
2023/04/19 04:16:05;;;;;;;4.95;2.97;;;20.00;78.80;;;;;;4955414;29;20476;-74
2023/04/19 04:18:31;;;;;;;3.70;2.72;;;20.00;78.70;;;;;;4953898;28;20075;-74
2023/04/19 04:20:56;;;;;;;4.97;3.20;;;20.00;78.70;;;;;;4954870;29;20542;-75
2023/04/19 04:23:24;;;;;;;4.65;2.72;;;20.00;78.70;;;;;;4952652;29;20531;-73
2023/04/19 04:25:59;;;;;;;3.95;2.80;;;20.10;78.80;;;;;;4951805;29;20027;-76
2023/04/19 04:28:26;;;;;;;4.32;2.92;;;20.10;78.80;;;;;;4952383;28;20114;-73
2023/04/19 04:30:56;;;;;;;4.40;2.70;;;20.00;78.80;;;;;;4951928;28;20082;-72
2023/04/19 04:33:25;;;;;;;20.35;3.03;;;20.10;78.80;;;;;;4950881;28;20019;-72
2023/04/19 04:35:52;;;;;;;22.35;4.00;;;20.10;79.30;;;;;;4952339;29;20023;-73
2023/04/19 04:38:18;;;;;;;16.02;3.03;;;20.20;79.10;;;;;;4951209;28;20031;-74
2023/04/19 04:40:47;;;;;;;39.72;6.53;;;20.20;79.30;;;;;;4950905;28;20023;-74
2023/04/19 04:43:13;;;;;;;108.07;12.00;;;20.10;79.10;;;;;;4949150;28;20174;-75
2023/04/19 04:45:38;;;;;;;129.88;17.25;;;20.20;79.00;;;;;;4952079;29;20565;-76
2023/04/19 04:48:04;;;;;;;129.18;17.90;;;20.20;78.70;;;;;;4949623;29;20023;-74
2023/04/19 04:50:30;;;;;;;134.07;18.27;;;20.30;78.50;;;;;;4953571;28;20066;-74
2023/04/19 04:52:55;;;;;;;114.38;18.13;;;20.40;78.40;;;;;;4953599;29;20024;-74
2023/04/19 04:55:21;;;;;;;125.32;17.08;;;20.40;78.20;;;;;;4953200;29;20413;-75
2023/04/19 04:57:47;;;;;;;129.75;19.63;;;20.40;78.10;;;;;;4953256;28;20031;-75
2023/04/19 05:00:12;;;;;;;114.32;19.92;;;20.50;78.00;;;;;;4949745;29;20521;-74
2023/04/19 05:02:38;;;;;;;109.03;18.23;;;20.50;77.90;;;;;;4948373;28;20108;-75
2023/04/19 05:05:04;;;;;;;166.80;19.95;;;20.50;77.80;;;;;;4949558;29;20576;-75
2023/04/19 05:07:29;;;;;;;110.18;18.08;;;20.50;77.70;;;;;;4943906;29;20059;-74
2023/04/19 05:09:55;;;;;;;108.45;18.17;;;20.50;77.70;;;;;;4951031;29;20035;-76
2023/04/19 05:12:20;;;;;;;108.03;17.48;;;20.50;77.70;;;;;;4945000;29;20039;-75
2023/04/19 05:14:46;;;;;;;90.15;18.45;;;20.50;77.80;;;;;;4945957;29;20019;-75
2023/04/19 05:17:12;;;;;;;118.00;17.90;;;20.50;77.80;;;;;;4948500;28;20039;-75
2023/04/19 05:19:37;;;;;;;99.57;17.23;;;20.50;77.70;;;;;;4951582;29;20027;-75
2023/04/19 05:22:03;;;;;;;107.70;15.80;;;20.50;77.60;;;;;;4952758;29;20035;-76
2023/04/19 05:24:28;;;;;;;95.10;17.08;;;20.60;77.60;;;;;;4952971;29;20039;-74
2023/04/19 05:26:54;;;;;;;91.05;15.60;;;20.60;77.80;;;;;;4952240;29;20057;-74
2023/04/19 05:29:19;;;;;;;99.00;16.25;;;20.60;77.70;;;;;;4950897;28;20485;-74
2023/04/19 05:31:45;;;;;;;93.18;15.02;;;20.60;77.80;;;;;;4945191;29;20027;-73
2023/04/19 05:34:10;;;;;;;106.50;14.05;;;20.70;78.80;;;;;;4947293;29;20031;-73
2023/04/19 05:36:36;;;;;;;86.63;15.57;;;20.90;78.30;;;;;;4942382;28;20082;-75
2023/04/19 05:39:01;;;;;;;81.65;14.95;;;20.90;78.20;;;;;;4947684;28;20027;-74
2023/04/19 05:41:27;;;;;;;82.63;15.38;;;21.00;78.20;;;;;;4947459;29;20032;-73
2023/04/19 05:43:52;;;;;;;77.90;15.10;;;21.00;78.30;;;;;;4944260;28;20032;-74
2023/04/19 05:46:18;;;;;;;70.82;13.75;;;21.00;78.30;;;;;;4944665;29;20038;-74
2023/04/19 05:48:44;;;;;;;60.10;12.18;;;21.10;78.30;;;;;;4950066;29;20023;-73
2023/04/19 05:51:09;;;;;;;61.13;12.38;;;21.10;78.40;;;;;;4943926;29;20654;-74
2023/04/19 05:53:35;;;;;;;59.50;14.13;;;21.10;78.30;;;;;;4947559;29;21150;-75
2023/04/19 05:56:00;;;;;;;66.75;13.52;;;21.10;78.30;;;;;;4949303;29;20389;-73
2023/04/19 05:58:26;;;;;;;70.65;13.57;;;21.20;78.30;;;;;;4945078;28;20046;-74
2023/04/19 06:00:51;;;;;;;57.63;13.52;;;21.20;78.20;;;;;;4948416;29;20050;-73
2023/04/19 06:03:17;;;;;;;60.55;13.07;;;21.20;78.10;;;;;;4943474;29;20032;-75
2023/04/19 06:05:42;;;;;;;47.35;12.35;;;21.20;78.10;;;;;;4945625;29;20078;-75
2023/04/19 06:08:08;;;;;;;53.83;12.05;;;21.30;78.30;;;;;;4948351;28;20119;-74
2023/04/19 06:10:35;;;;;;;59.80;13.75;;;21.30;78.40;;;;;;4948184;29;20448;-74
2023/04/19 06:13:00;;;;;;;53.58;11.82;;;21.30;78.30;;;;;;4946644;28;20034;-74
2023/04/19 06:15:26;;;;;;;42.67;11.75;;;21.30;78.20;;;;;;4946067;29;20035;-74
2023/04/19 06:17:52;;;;;;;57.60;11.82;;;21.30;78.60;;;;;;4950408;28;20122;-74
2023/04/19 06:20:17;;;;;;;51.78;12.18;;;21.40;78.10;;;;;;4951554;29;20054;-73
2023/04/19 06:22:47;;;;;;;51.38;13.02;;;21.40;77.90;;;;;;4949447;29;20492;-73
2023/04/19 06:25:13;;;;;;;;;;;21.40;77.90;;;;;;4950796;29;20170;-74
2023/04/19 06:27:39;;;;;;;47.97;11.60;;;21.50;77.90;;;;;;4950515;28;20371;-74
2023/04/19 06:30:05;;;;;;;51.85;11.32;;;21.50;77.90;;;;;;4949881;29;20078;-72
2023/04/19 06:32:31;;;;;;;47.45;10.73;;;21.50;77.90;;;;;;4946931;29;20036;-77
2023/04/19 06:34:57;;;;;;;48.88;9.73;;;21.60;77.70;;;;;;4941732;29;20149;-76
2023/04/19 06:37:22;;;;;;;45.25;10.20;;;21.50;76.20;;;;;;4948849;28;20031;-76
2023/04/19 06:39:48;;;;;;;28.67;9.65;;;21.30;77.00;;;;;;4945763;29;20035;-77
2023/04/19 06:42:13;;;;;;;42.08;8.55;;;21.30;76.00;;;;;;4943397;28;20036;-76
2023/04/19 06:44:39;;;;;;;35.25;9.52;;;21.20;76.60;;;;;;4949000;29;20494;-76
2023/04/19 06:47:05;;;;;;;53.55;9.50;;;21.20;75.70;;;;;;4943240;28;20035;-76
2023/04/19 06:49:30;;;;;;;35.80;8.20;;;21.10;76.00;;;;;;4941237;29;20019;-76
2023/04/19 06:51:57;;;;;;;37.72;8.77;;;21.10;76.00;;;;;;4942767;29;20121;-77
2023/04/19 06:54:22;;;;;;;34.72;8.18;;;21.00;76.10;;;;;;4943116;28;20046;-76
2023/04/19 06:56:49;;;;;;;36.85;8.30;;;21.00;76.20;;;;;;4952954;29;20027;-76
2023/04/19 06:59:17;;;;;;;44.22;8.07;;;21.00;76.20;;;;;;4947146;29;20027;-78
2023/04/19 07:01:44;;;;;;;42.92;8.05;;;21.00;76.30;;;;;;4945193;29;20114;-77
2023/04/19 07:04:10;;;;;;;25.10;7.60;;;21.00;76.50;;;;;;4945766;29;20081;-77
2023/04/19 07:06:36;;;;;;;41.42;6.80;;;21.00;75.30;;;;;;4950713;29;20035;-78
2023/04/19 07:09:03;;;;;;;22.45;6.80;;;20.90;74.50;;;;;;4951106;28;20636;-77
2023/04/19 07:11:29;;;;;;;24.83;7.72;;;20.90;74.90;;;;;;4941901;29;20015;-79
2023/04/19 07:13:55;;;;;;;19.75;5.70;;;20.90;75.70;;;;;;4946977;29;20094;-79
2023/04/19 07:16:21;;;;;;;27.20;7.05;;;20.90;75.40;;;;;;4942721;28;20104;-79
2023/04/19 07:18:47;;;;;;;19.73;6.18;;;20.90;75.20;;;;;;4949430;29;20035;-78
2023/04/19 07:21:12;;;;;;;20.30;6.13;;;20.80;75.40;;;;;;4953597;29;20031;-79
2023/04/19 07:23:38;;;;;;;44.05;7.75;;;20.80;75.50;;;;;;4951905;29;20047;-80
2023/04/19 07:26:04;;;;;;;29.02;6.32;;;20.80;75.80;;;;;;4948711;29;20369;-78
2023/04/19 07:28:29;;;;;;;25.83;7.45;;;20.80;75.70;;;;;;4948611;29;20046;-78
2023/04/19 07:30:55;;;;;;;19.38;5.63;;;20.80;75.80;;;;;;4949748;28;20143;-76
2023/04/19 07:33:22;;;;;;;22.27;6.15;;;20.80;75.70;;;;;;4953987;29;20485;-77
2023/04/19 07:35:47;;;;;;;23.25;6.22;;;20.70;75.90;;;;;;4954533;29;20118;-79
2023/04/19 07:38:13;;;;;;;27.70;6.55;;;20.80;76.20;;;;;;4954914;28;20110;-79
2023/04/19 07:40:38;;;;;;;18.05;5.50;;;20.80;76.20;;;;;;4953941;29;20070;-77
2023/04/19 07:43:05;;;;;;;25.60;6.03;;;20.80;76.10;;;;;;4955484;29;20027;-80
2023/04/19 07:45:31;;;;;;;28.20;6.30;;;20.80;76.10;;;;;;4954817;29;20114;-78
2023/04/19 07:47:56;;;;;;;23.30;6.65;;;20.80;76.20;;;;;;4953646;28;20107;-78
2023/04/19 07:50:24;;;;;;;34.45;5.53;;;20.70;76.30;;;;;;4954350;29;20027;-78
2023/04/19 07:52:49;;;;;;;24.77;5.72;;;20.80;76.60;;;;;;4952255;28;20665;-78
2023/04/19 07:55:15;;;;;;;16.70;4.68;;;21.00;76.40;;;;;;4954643;29;20106;-77
2023/04/19 07:57:44;;;;;;;17.55;5.65;;;21.20;76.20;;;;;;4951023;28;20027;-78
2023/04/19 08:00:11;;;;;;;31.17;4.82;;;21.30;75.80;;;;;;4953406;28;20019;-76
2023/04/19 08:02:37;;;;;;;25.38;5.05;;;21.50;75.90;;;;;;4950695;28;20023;-77
2023/04/19 08:05:03;;;;;;;21.35;5.15;;;21.50;75.80;;;;;;4945266;29;20043;-77
2023/04/19 08:07:29;;;;;;;21.75;5.38;;;21.60;75.70;;;;;;4947288;28;20094;-76
2023/04/19 08:09:55;;;;;;;27.38;5.63;;;21.70;75.80;;;;;;4945262;29;20102;-77
2023/04/19 08:12:20;;;;;;;17.35;5.82;;;21.70;75.90;;;;;;4946747;28;20106;-78
2023/04/19 08:14:47;;;;;;;23.67;5.22;;;21.80;75.90;;;;;;4945593;29;20051;-77
2023/04/19 08:17:15;;;;;;;13.55;4.63;;;21.80;75.80;;;;;;4948149;28;20030;-75
2023/04/19 08:19:40;;;;;;;18.10;5.10;;;21.90;76.00;;;;;;4947235;28;20090;-77
2023/04/19 08:22:06;;;;;;;20.65;5.20;;;21.90;75.90;;;;;;4947737;29;20485;-77
2023/04/19 08:24:31;;;;;;;15.95;4.93;;;21.90;76.10;;;;;;4947163;29;20035;-76
2023/04/19 08:26:57;;;;;;;15.55;5.60;;;21.90;76.30;;;;;;4943667;29;20137;-77
2023/04/19 08:29:22;;;;;;;20.95;5.15;;;21.90;76.00;;;;;;4948013;28;20484;-77
2023/04/19 08:31:48;;;;;;;19.58;5.32;;;21.90;76.10;;;;;;4946421;29;20401;-75
2023/04/19 08:34:14;;;;;;;23.45;5.07;;;22.00;76.20;;;;;;4948168;28;20035;-76
2023/04/19 08:36:39;;;;;;;30.85;5.13;;;22.10;76.40;;;;;;4944717;29;20590;-73
2023/04/19 08:39:05;;;;;;;16.77;4.65;;;22.10;75.90;;;;;;4944410;28;20031;-73
2023/04/19 08:41:31;;;;;;;28.08;5.75;;;21.90;75.60;;;;;;4946682;29;20034;-72
2023/04/19 08:43:57;;;;;;;22.15;5.05;;;21.90;75.70;;;;;;4947721;29;20024;-73
2023/04/19 08:46:23;;;;;;;18.15;4.90;;;22.00;75.60;;;;;;4952577;29;20042;-73
2023/04/19 08:48:49;;;;;;;14.60;4.70;;;22.00;75.40;;;;;;4953495;28;20390;-74
2023/04/19 08:51:16;;;;;;;14.80;4.40;;;22.00;75.50;;;;;;4954071;29;20027;-73
2023/04/19 08:53:43;;;;;;;12.15;4.78;;;21.90;73.20;;;;;;4953923;28;20099;-73
2023/04/19 08:56:09;;;;;;;21.52;4.78;;;21.60;73.40;;;;;;4944405;29;20032;-72
2023/04/19 08:58:35;;;;;;;21.55;4.65;;;21.50;74.30;;;;;;4948184;29;20019;-75
2023/04/19 09:01:03;;;;;;;17.92;5.03;;;21.40;74.50;;;;;;4946068;29;20023;-71
2023/04/19 09:03:29;;;;;;;11.88;4.55;;;21.50;74.60;;;;;;4946480;29;20035;-73
2023/04/19 09:05:55;;;;;;;12.68;4.07;;;21.40;74.90;;;;;;4944309;29;20109;-72
2023/04/19 09:08:26;;;;;;;11.90;4.30;;;21.50;75.20;;;;;;4946012;28;20031;-73
2023/04/19 09:10:59;;;;;;;10.82;4.18;;;21.50;74.90;;;;;;4948397;29;20457;-74
2023/04/19 09:13:26;;;;;;;16.33;5.80;;;21.40;74.40;;;;;;4947264;29;20449;-74
2023/04/19 09:15:52;;;;;;;10.70;4.00;;;21.40;74.60;;;;;;4945641;29;20035;-74
2023/04/19 09:18:18;;;;;;;10.63;4.13;;;21.30;74.70;;;;;;4945896;28;20031;-74
2023/04/19 09:20:45;;;;;;;34.70;4.60;;;21.30;74.80;;;;;;4947908;28;20055;-72
2023/04/19 09:23:16;;;;;;;16.55;4.32;;;21.30;75.40;;;;;;4949228;28;20102;-70
2023/04/19 09:25:56;;;;;;;18.60;3.88;;;21.40;75.10;;;;;;4948572;29;20055;-72
2023/04/19 09:28:23;;;;;;;14.80;4.43;;;21.40;74.80;;;;;;4949683;28;20406;-72
2023/04/19 09:30:49;;;;;;;12.02;3.88;;;21.30;74.80;;;;;;4945957;29;20405;-72
2023/04/19 09:33:34;;;;;;;16.42;4.72;;;21.30;75.00;;;;;;4950909;29;20047;-73
2023/04/19 09:36:00;;;;;;;7.28;4.05;;;21.20;75.00;;;;;;4945892;29;20028;-73
2023/04/19 09:38:26;;;;;;;11.70;4.22;;;21.20;75.00;;;;;;4947185;28;20027;-73
2023/04/19 09:41:04;;;;;;;13.57;4.00;;;21.20;75.20;;;;;;4945844;29;20514;-71
2023/04/19 09:43:29;;;;;;;7.75;3.50;;;21.20;75.00;;;;;;4946165;29;20035;-72
2023/04/19 09:45:55;;;;;;;11.85;4.03;;;21.30;75.30;;;;;;4947666;29;20035;-73
2023/04/19 09:48:22;;;;;;;10.52;4.15;;;21.30;75.30;;;;;;4949132;28;20026;-73
2023/04/19 09:51:01;;;;;;;19.90;4.20;;;21.30;75.10;;;;;;4946362;29;20052;-74
2023/04/19 09:53:29;;;;;;;13.55;4.55;;;21.20;75.10;;;;;;4947863;29;20499;-73
2023/04/19 09:55:54;;;;;;;6.47;3.97;;;21.20;75.30;;;;;;4953430;28;20125;-73
2023/04/19 09:58:21;;;;;;;12.95;3.80;;;21.20;75.40;;;;;;4951988;28;20455;-74
2023/04/19 10:00:49;;;;;;;13.63;4.10;;;21.10;75.50;;;;;;4953186;28;20155;-74
2023/04/19 10:03:15;;;;;;;9.32;3.97;;;21.10;75.50;;;;;;4952970;29;20019;-74
2023/04/19 10:05:43;;;;;;;14.43;3.80;;;21.10;75.70;;;;;;4952712;29;20413;-73
2023/04/19 10:08:10;;;;;;;8.65;4.05;;;21.10;75.60;;;;;;4952798;28;20015;-73
2023/04/19 10:10:36;;;;;;;13.10;4.40;;;21.10;75.70;;;;;;4951057;29;20946;-72
2023/04/19 10:13:05;;;;;;;8.10;3.50;;;21.10;75.70;;;;;;4946587;28;20625;-73
2023/04/19 10:15:31;;;;;;;5.95;3.72;;;21.10;75.90;;;;;;4948567;28;20058;-74
2023/04/19 10:17:57;;;;;;;21.52;4.90;;;21.10;75.70;;;;;;4949477;28;20023;-73
2023/04/19 10:20:31;;;;;;;21.13;4.57;;;21.20;75.60;;;;;;4943744;29;20031;-72
2023/04/19 10:22:56;;;;;;;30.23;5.30;;;21.20;75.50;;;;;;4948450;28;20118;-73
2023/04/19 10:25:31;;;;;;;11.70;4.50;;;21.20;75.80;;;;;;4950241;29;20071;-72
2023/04/19 10:27:57;;;;;;;10.45;4.38;;;21.10;75.40;;;;;;4947770;28;20027;-72
2023/04/19 10:30:25;;;;;;;14.13;3.95;;;21.10;75.60;;;;;;4948884;29;20032;-71
2023/04/19 10:33:01;;;;;;;17.45;4.22;;;21.10;75.70;;;;;;4946817;29;20168;-72
2023/04/19 10:35:37;;;;;;;14.50;3.95;;;21.10;75.70;;;;;;4947975;29;20020;-72
2023/04/19 10:38:10;;;;;;;10.00;4.18;;;21.10;75.80;;;;;;4944571;28;20032;-73
2023/04/19 10:40:55;;;;;;;10.27;4.20;;;21.00;75.90;;;;;;4946552;29;20055;-72
2023/04/19 10:43:23;;;;;;;8.60;3.92;;;21.00;75.90;;;;;;4947531;28;20032;-72
2023/04/19 10:45:49;;;;;;;8.85;4.05;;;21.00;76.10;;;;;;4947354;28;20138;-72
2023/04/19 10:48:31;;;;;;;17.23;3.67;;;21.00;76.10;;;;;;4946935;28;20465;-73
2023/04/19 10:51:13;;;;;;;16.95;4.05;;;21.00;76.10;;;;;;4947864;28;20508;-72
2023/04/19 10:53:45;;;;;;;8.85;4.00;;;21.00;76.10;;;;;;4944926;29;20030;-72
2023/04/19 10:56:11;;;;;;;9.05;3.60;;;21.00;76.00;;;;;;4947766;29;20102;-72
2023/04/19 10:58:59;;;;;;;7.07;3.78;;;21.00;76.00;;;;;;4947005;28;20127;-72
2023/04/19 11:01:41;;;;;;;7.43;3.58;;;21.00;76.10;;;;;;4951499;29;20110;-73
2023/04/19 11:04:12;;;;;;;6.60;3.75;;;20.90;76.10;;;;;;4951137;29;20050;-72
2023/04/19 11:07:00;;;;;;;29.30;5.13;;;21.00;76.20;;;;;;4951386;29;20137;-73
2023/04/19 11:09:37;;;;;;;10.10;3.72;;;21.00;76.50;;;;;;4951375;28;20539;-70
2023/04/19 11:12:08;;;;;;;11.50;4.63;;;21.00;77.00;;;;;;4950234;29;20520;-68
2023/04/19 11:14:41;;;;;;;9.35;3.55;;;21.10;76.10;;;;;;4951653;29;20023;-69
2023/04/19 11:17:33;;;;;;;19.05;4.13;;;21.10;76.00;;;;;;4951247;29;20118;-70
2023/04/19 11:20:08;;;;;;;11.80;3.63;;;21.10;76.00;;;;;;4949477;29;20122;-70
2023/04/19 11:22:39;;;;;;;8.75;3.50;;;21.10;76.50;;;;;;4949952;29;20027;-71
2023/04/19 11:25:19;;;;;;;12.05;3.95;;;21.10;77.30;;;;;;4948414;29;20062;-71
2023/04/19 11:27:49;;;;;;;10.77;3.90;;;21.20;77.00;;;;;;4951559;28;20023;-70
2023/04/19 11:30:16;;;;;;;;;;;21.40;77.30;;;;;;4947250;28;20114;-70
2023/04/19 11:32:49;;;;;;;10.15;4.00;;;21.40;77.10;;;;;;4952116;28;19910;-70
2023/04/19 11:35:19;;;;;;;11.50;3.63;;;21.40;76.90;;;;;;4948220;28;20454;-72
2023/04/19 11:37:45;;;;;;;6.10;3.50;;;21.50;76.80;;;;;;4946020;29;20082;-69
2023/04/19 11:40:15;;;;;;;23.75;3.67;;;21.40;75.90;;;;;;4951381;28;20027;-70
2023/04/19 11:42:41;;;;;;;71.53;5.90;;;21.30;76.00;;;;;;4955306;28;20042;-70
2023/04/19 11:45:07;;;;;;;38.20;4.18;;;21.30;76.20;;;;;;4950989;29;20031;-71
2023/04/19 11:47:33;;;;;;;10.80;4.15;;;21.20;76.60;;;;;;4949234;28;20027;-71
2023/04/19 11:50:34;;;;;;;13.82;3.63;;;21.20;76.80;;;;;;4953494;29;20408;-71
2023/04/19 11:53:14;;;;;;;25.13;3.83;;;21.20;76.80;;;;;;4953083;29;20081;-71
2023/04/19 11:55:51;;;;;;;8.10;3.45;;;21.10;76.60;;;;;;4949811;29;20038;-71
2023/04/19 11:58:32;;;;;;;10.73;3.58;;;21.10;76.60;;;;;;4949302;29;20042;-71
2023/04/19 12:01:05;;;;;;;19.55;3.45;;;21.10;76.60;;;;;;4947306;29;20490;-72
2023/04/19 12:03:31;;;;;;;29.67;3.63;;;21.10;76.60;;;;;;4945498;29;20158;-72
2023/04/19 12:05:59;;;;;;;17.02;4.28;;;21.10;76.50;;;;;;4948945;28;20039;-71
2023/04/19 12:08:36;;;;;;;17.45;4.22;;;21.00;76.50;;;;;;4949912;28;20151;-72
2023/04/19 12:11:03;;;;;;;20.02;4.90;;;21.00;76.50;;;;;;4950432;29;20110;-70
2023/04/19 12:13:32;;;;;;;31.17;4.05;;;21.10;76.30;;;;;;4951409;29;20067;-74
2023/04/19 12:15:58;;;;;;;23.05;3.88;;;21.10;76.50;;;;;;4949603;29;20059;-75
2023/04/19 12:18:24;;;;;;;14.20;3.83;;;21.10;76.00;;;;;;4951584;28;20038;-74
2023/04/19 12:20:51;;;;;;;15.32;4.28;;;21.00;76.20;;;;;;4948355;28;20036;-73
2023/04/19 12:23:18;;;;;;;17.45;4.30;;;21.00;77.80;;;;;;4946266;29;20015;-73
2023/04/19 12:25:46;;;;;;;7.95;3.53;;;21.10;76.50;;;;;;4941878;29;20039;-71
2023/04/19 12:28:12;;;;;;;16.30;3.80;;;21.10;76.40;;;;;;4940945;29;20031;-74
2023/04/19 12:30:38;;;;;;;18.33;3.78;;;21.20;76.30;;;;;;4947561;29;20050;-77
2023/04/19 12:33:05;;;;;;;11.10;3.63;;;21.10;76.20;;;;;;4946745;29;20062;-76
2023/04/19 12:35:31;;;;;;;17.38;3.83;;;21.10;76.30;;;;;;4953314;29;20023;-75
2023/04/19 12:37:58;;;;;;;5.43;2.80;;;21.00;76.40;;;;;;4945241;29;20504;-75